Karymskoye, Russia
Current Conditions -  °F | °C
As of 6:00 AM on Tuesday 25 Nov 2014 (Local Time) from UIAA Reporting Station
Haze Haze  
Wind Chill: -6°   Ceiling: Unl
Heat Index: -6°   Visibility: 3mi
Dew Point: -9°   Wind: 0mph
Humidity: 84%   Direction: NA
Pressure: 29.53"   Gusts: NA
Location:  51.62°N, 114.35°E
Report Text: UIAA 242100Z 00000MPS 5000 BR SCT200 M21/M23 Q1000 NOSIG RMKQFE692 29CLRD70
Loading
Personal Weather Stations






























Interactive Weather Map New forecast layout! Learn more

10-Day Weather Forecast

Advertisements
Track Severe Weather on mobile